sensor_id;sensor_type;location;lat;lon;timestamp;P1;durP1;ratioP1;P2;durP2;ratioP2
27566;SDS011;15006;48.584;9.186;2023-04-01T00:01:29;1.60;;;0.90;;
27566;SDS011;15006;48.584;9.186;2023-04-01T00:03:58;2.92;;;0.68;;
27566;SDS011;15006;48.584;9.186;2023-04-01T00:06:27;2.63;;;0.95;;
27566;SDS011;15006;48.584;9.186;2023-04-01T00:08:53;1.15;;;0.50;;
27566;SDS011;15006;48.584;9.186;2023-04-01T00:11:19;2.28;;;0.77;;
27566;SDS011;15006;48.584;9.186;2023-04-01T00:13:46;1.92;;;0.95;;
27566;SDS011;15006;48.584;9.186;2023-04-01T00:16:12;3.60;;;0.90;;
27566;SDS011;15006;48.584;9.186;2023-04-01T00:18:39;2.15;;;0.68;;
27566;SDS011;15006;48.584;9.186;2023-04-01T00:21:05;2.13;;;0.68;;
27566;SDS011;15006;48.584;9.186;2023-04-01T00:23:32;1.50;;;0.70;;
27566;SDS011;15006;48.584;9.186;2023-04-01T00:26:02;1.85;;;0.52;;
27566;SDS011;15006;48.584;9.186;2023-04-01T00:30:55;2.00;;;0.70;;
27566;SDS011;15006;48.584;9.186;2023-04-01T00:33:21;2.55;;;0.90;;
27566;SDS011;15006;48.584;9.186;2023-04-01T00:35:47;3.80;;;0.80;;
27566;SDS011;15006;48.584;9.186;2023-04-01T00:38:14;1.83;;;0.73;;
27566;SDS011;15006;48.584;9.186;2023-04-01T00:40:41;1.88;;;0.73;;
27566;SDS011;15006;48.584;9.186;2023-04-01T00:43:12;5.30;;;0.40;;
27566;SDS011;15006;48.584;9.186;2023-04-01T00:45:49;1.00;;;0.60;;
27566;SDS011;15006;48.584;9.186;2023-04-01T00:48:20;2.33;;;0.82;;
27566;SDS011;15006;48.584;9.186;2023-04-01T00:50:52;1.35;;;0.60;;
27566;SDS011;15006;48.584;9.186;2023-04-01T00:53:24;1.77;;;0.65;;
27566;SDS011;15006;48.584;9.186;2023-04-01T00:55:56;2.13;;;0.60;;
27566;SDS011;15006;48.584;9.186;2023-04-01T00:58:39;3.40;;;0.45;;
27566;SDS011;15006;48.584;9.186;2023-04-01T01:01:09;2.72;;;0.90;;
27566;SDS011;15006;48.584;9.186;2023-04-01T01:03:35;1.42;;;0.52;;
27566;SDS011;15006;48.584;9.186;2023-04-01T01:06:16;1.80;;;0.60;;
27566;SDS011;15006;48.584;9.186;2023-04-01T01:09:56;1.42;;;0.75;;
27566;SDS011;15006;48.584;9.186;2023-04-01T01:12:58;2.90;;;0.60;;
27566;SDS011;15006;48.584;9.186;2023-04-01T01:19:08;1.60;;;0.60;;
27566;SDS011;15006;48.584;9.186;2023-04-01T01:28:24;1.40;;;0.50;;
27566;SDS011;15006;48.584;9.186;2023-04-01T01:31:23;1.05;;;0.40;;
27566;SDS011;15006;48.584;9.186;2023-04-01T01:34:30;2.53;;;0.50;;
27566;SDS011;15006;48.584;9.186;2023-04-01T01:37:08;1.20;;;0.40;;
27566;SDS011;15006;48.584;9.186;2023-04-01T01:39:39;2.35;;;0.50;;
27566;SDS011;15006;48.584;9.186;2023-04-01T01:42:08;0.75;;;0.40;;
27566;SDS011;15006;48.584;9.186;2023-04-01T01:47:05;1.05;;;0.38;;
27566;SDS011;15006;48.584;9.186;2023-04-01T01:49:32;1.13;;;0.43;;
27566;SDS011;15006;48.584;9.186;2023-04-01T01:52:00;3.40;;;0.88;;
27566;SDS011;15006;48.584;9.186;2023-04-01T01:54:26;1.50;;;0.57;;
27566;SDS011;15006;48.584;9.186;2023-04-01T01:56:55;1.95;;;0.57;;
27566;SDS011;15006;48.584;9.186;2023-04-01T01:59:33;0.47;;;0.30;;
27566;SDS011;15006;48.584;9.186;2023-04-01T02:02:03;0.80;;;0.45;;
27566;SDS011;15006;48.584;9.186;2023-04-01T02:04:37;1.25;;;0.38;;
27566;SDS011;15006;48.584;9.186;2023-04-01T02:07:07;0.50;;;0.20;;
27566;SDS011;15006;48.584;9.186;2023-04-01T02:09:41;1.23;;;0.40;;
27566;SDS011;15006;48.584;9.186;2023-04-01T02:12:09;1.25;;;0.57;;
27566;SDS011;15006;48.584;9.186;2023-04-01T02:17:35;0.43;;;0.30;;
27566;SDS011;15006;48.584;9.186;2023-04-01T02:20:10;0.95;;;0.25;;
27566;SDS011;15006;48.584;9.186;2023-04-01T02:22:43;0.43;;;0.25;;
27566;SDS011;15006;48.584;9.186;2023-04-01T02:25:18;1.17;;;0.30;;
27566;SDS011;15006;48.584;9.186;2023-04-01T02:27:49;1.20;;;0.40;;
27566;SDS011;15006;48.584;9.186;2023-04-01T02:30:15;1.52;;;0.43;;
27566;SDS011;15006;48.584;9.186;2023-04-01T02:32:42;0.93;;;0.68;;
27566;SDS011;15006;48.584;9.186;2023-04-01T02:35:10;0.73;;;0.40;;
27566;SDS011;15006;48.584;9.186;2023-04-01T02:37:41;0.30;;;0.30;;
27566;SDS011;15006;48.584;9.186;2023-04-01T02:40:10;0.65;;;0.40;;
27566;SDS011;15006;48.584;9.186;2023-04-01T02:42:39;1.80;;;0.40;;
27566;SDS011;15006;48.584;9.186;2023-04-01T02:45:05;0.63;;;0.30;;
27566;SDS011;15006;48.584;9.186;2023-04-01T02:47:33;0.47;;;0.20;;
27566;SDS011;15006;48.584;9.186;2023-04-01T02:49:59;2.15;;;0.35;;
27566;SDS011;15006;48.584;9.186;2023-04-01T02:52:25;0.57;;;0.20;;
27566;SDS011;15006;48.584;9.186;2023-04-01T02:54:56;4.63;;;0.40;;
27566;SDS011;15006;48.584;9.186;2023-04-01T02:57:23;0.77;;;0.40;;
27566;SDS011;15006;48.584;9.186;2023-04-01T02:59:50;2.08;;;0.73;;
27566;SDS011;15006;48.584;9.186;2023-04-01T03:02:16;0.47;;;0.30;;
27566;SDS011;15006;48.584;9.186;2023-04-01T03:04:42;0.40;;;0.30;;
27566;SDS011;15006;48.584;9.186;2023-04-01T03:07:09;0.30;;;0.30;;
27566;SDS011;15006;48.584;9.186;2023-04-01T03:09:38;0.20;;;0.20;;
27566;SDS011;15006;48.584;9.186;2023-04-01T03:12:05;1.33;;;0.32;;
27566;SDS011;15006;48.584;9.186;2023-04-01T03:14:31;1.45;;;0.20;;
27566;SDS011;15006;48.584;9.186;2023-04-01T03:16:57;0.75;;;0.20;;
27566;SDS011;15006;48.584;9.186;2023-04-01T03:19:23;0.90;;;0.40;;
27566;SDS011;15006;48.584;9.186;2023-04-01T03:21:49;0.60;;;0.30;;
27566;SDS011;15006;48.584;9.186;2023-04-01T03:24:15;0.32;;;0.20;;
27566;SDS011;15006;48.584;9.186;2023-04-01T03:26:41;0.22;;;0.20;;
27566;SDS011;15006;48.584;9.186;2023-04-01T03:29:07;0.30;;;0.30;;
27566;SDS011;15006;48.584;9.186;2023-04-01T03:31:33;0.35;;;0.20;;
27566;SDS011;15006;48.584;9.186;2023-04-01T03:33:59;0.63;;;0.20;;
27566;SDS011;15006;48.584;9.186;2023-04-01T03:36:26;0.20;;;0.20;;
27566;SDS011;15006;48.584;9.186;2023-04-01T03:38:52;0.50;;;0.17;;
27566;SDS011;15006;48.584;9.186;2023-04-01T03:41:18;0.60;;;0.20;;
27566;SDS011;15006;48.584;9.186;2023-04-01T03:43:44;0.15;;;0.10;;
27566;SDS011;15006;48.584;9.186;2023-04-01T03:46:10;0.35;;;0.22;;
27566;SDS011;15006;48.584;9.186;2023-04-01T03:48:36;0.73;;;0.20;;
27566;SDS011;15006;48.584;9.186;2023-04-01T03:51:06;0.25;;;0.25;;
27566;SDS011;15006;48.584;9.186;2023-04-01T03:53:33;0.20;;;0.20;;
27566;SDS011;15006;48.584;9.186;2023-04-01T03:56:03;1.40;;;0.30;;
27566;SDS011;15006;48.584;9.186;2023-04-01T03:58:34;0.10;;;0.10;;
27566;SDS011;15006;48.584;9.186;2023-04-01T04:01:01;0.10;;;0.10;;
27566;SDS011;15006;48.584;9.186;2023-04-01T04:03:27;0.20;;;0.20;;
27566;SDS011;15006;48.584;9.186;2023-04-01T04:05:53;0.68;;;0.30;;
27566;SDS011;15006;48.584;9.186;2023-04-01T04:08:20;0.57;;;0.32;;
27566;SDS011;15006;48.584;9.186;2023-04-01T04:10:47;0.52;;;0.30;;
27566;SDS011;15006;48.584;9.186;2023-04-01T04:13:13;0.98;;;0.28;;
27566;SDS011;15006;48.584;9.186;2023-04-01T04:15:39;0.28;;;0.28;;
27566;SDS011;15006;48.584;9.186;2023-04-01T04:18:05;0.50;;;0.13;;
27566;SDS011;15006;48.584;9.186;2023-04-01T04:20:31;1.08;;;0.20;;
27566;SDS011;15006;48.584;9.186;2023-04-01T04:22:57;0.30;;;0.30;;
27566;SDS011;15006;48.584;9.186;2023-04-01T04:25:25;0.20;;;0.20;;
27566;SDS011;15006;48.584;9.186;2023-04-01T04:27:51;1.95;;;0.30;;
27566;SDS011;15006;48.584;9.186;2023-04-01T04:30:17;1.50;;;0.60;;
27566;SDS011;15006;48.584;9.186;2023-04-01T04:32:43;1.85;;;0.50;;
27566;SDS011;15006;48.584;9.186;2023-04-01T04:35:09;0.40;;;0.40;;
27566;SDS011;15006;48.584;9.186;2023-04-01T04:37:35;1.08;;;0.43;;
27566;SDS011;15006;48.584;9.186;2023-04-01T04:40:01;1.00;;;0.40;;
27566;SDS011;15006;48.584;9.186;2023-04-01T04:42:28;0.55;;;0.30;;
27566;SDS011;15006;48.584;9.186;2023-04-01T04:44:54;0.73;;;0.43;;
27566;SDS011;15006;48.584;9.186;2023-04-01T04:47:20;0.65;;;0.40;;
27566;SDS011;15006;48.584;9.186;2023-04-01T04:49:46;1.65;;;0.75;;
27566;SDS011;15006;48.584;9.186;2023-04-01T04:52:13;2.13;;;0.63;;
27566;SDS011;15006;48.584;9.186;2023-04-01T04:54:39;0.77;;;0.50;;
27566;SDS011;15006;48.584;9.186;2023-04-01T04:57:05;1.70;;;0.50;;
27566;SDS011;15006;48.584;9.186;2023-04-01T04:59:31;0.85;;;0.60;;
27566;SDS011;15006;48.584;9.186;2023-04-01T05:01:57;0.85;;;0.30;;
27566;SDS011;15006;48.584;9.186;2023-04-01T05:04:23;1.83;;;0.65;;
27566;SDS011;15006;48.584;9.186;2023-04-01T05:06:49;3.13;;;0.75;;
27566;SDS011;15006;48.584;9.186;2023-04-01T05:09:15;1.88;;;0.82;;
27566;SDS011;15006;48.584;9.186;2023-04-01T05:11:41;1.88;;;0.60;;
27566;SDS011;15006;48.584;9.186;2023-04-01T05:14:11;1.02;;;0.40;;
27566;SDS011;15006;48.584;9.186;2023-04-01T05:16:39;0.80;;;0.40;;
27566;SDS011;15006;48.584;9.186;2023-04-01T05:19:05;2.40;;;0.90;;
27566;SDS011;15006;48.584;9.186;2023-04-01T05:21:30;0.85;;;0.60;;
27566;SDS011;15006;48.584;9.186;2023-04-01T05:23:57;1.88;;;0.82;;
27566;SDS011;15006;48.584;9.186;2023-04-01T05:26:23;1.42;;;0.50;;
27566;SDS011;15006;48.584;9.186;2023-04-01T05:28:49;3.15;;;0.80;;
27566;SDS011;15006;48.584;9.186;2023-04-01T05:31:15;2.08;;;0.70;;
27566;SDS011;15006;48.584;9.186;2023-04-01T05:33:41;0.68;;;0.40;;
27566;SDS011;15006;48.584;9.186;2023-04-01T05:36:11;2.60;;;0.55;;
27566;SDS011;15006;48.584;9.186;2023-04-01T05:38:39;1.25;;;0.60;;
27566;SDS011;15006;48.584;9.186;2023-04-01T05:41:07;1.67;;;0.60;;
27566;SDS011;15006;48.584;9.186;2023-04-01T05:43:37;1.60;;;1.13;;
27566;SDS011;15006;48.584;9.186;2023-04-01T05:46:05;2.20;;;0.98;;
27566;SDS011;15006;48.584;9.186;2023-04-01T05:48:32;0.43;;;0.40;;
27566;SDS011;15006;48.584;9.186;2023-04-01T05:51:00;0.73;;;0.30;;
27566;SDS011;15006;48.584;9.186;2023-04-01T05:53:27;0.30;;;0.30;;
27566;SDS011;15006;48.584;9.186;2023-04-01T05:55:53;2.83;;;0.50;;
27566;SDS011;15006;48.584;9.186;2023-04-01T05:58:19;1.17;;;0.38;;
27566;SDS011;15006;48.584;9.186;2023-04-01T06:00:45;0.43;;;0.28;;
27566;SDS011;15006;48.584;9.186;2023-04-01T06:03:11;1.33;;;0.55;;
27566;SDS011;15006;48.584;9.186;2023-04-01T06:05:41;1.08;;;0.20;;
27566;SDS011;15006;48.584;9.186;2023-04-01T06:08:10;0.40;;;0.40;;
27566;SDS011;15006;48.584;9.186;2023-04-01T06:10:53;0.55;;;0.35;;
27566;SDS011;15006;48.584;9.186;2023-04-01T06:32:38;0.55;;;0.40;;
27566;SDS011;15006;48.584;9.186;2023-04-01T06:35:07;0.73;;;0.30;;
27566;SDS011;15006;48.584;9.186;2023-04-01T06:46:19;1.85;;;0.50;;
27566;SDS011;15006;48.584;9.186;2023-04-01T06:51:58;0.73;;;0.40;;
27566;SDS011;15006;48.584;9.186;2023-04-01T06:57:47;0.68;;;0.40;;
27566;SDS011;15006;48.584;9.186;2023-04-01T07:00:19;0.40;;;0.30;;
27566;SDS011;15006;48.584;9.186;2023-04-01T07:05:47;0.20;;;0.20;;
27566;SDS011;15006;48.584;9.186;2023-04-01T07:08:26;0.73;;;0.57;;
27566;SDS011;15006;48.584;9.186;2023-04-01T07:10:56;0.52;;;0.38;;
27566;SDS011;15006;48.584;9.186;2023-04-01T07:13:32;0.98;;;0.30;;
27566;SDS011;15006;48.584;9.186;2023-04-01T07:16:10;0.63;;;0.47;;
27566;SDS011;15006;48.584;9.186;2023-04-01T07:18:42;1.65;;;0.30;;
27566;SDS011;15006;48.584;9.186;2023-04-01T07:21:20;1.17;;;0.32;;
27566;SDS011;15006;48.584;9.186;2023-04-01T07:23:52;0.38;;;0.30;;
27566;SDS011;15006;48.584;9.186;2023-04-01T07:26:25;1.33;;;0.40;;
27566;SDS011;15006;48.584;9.186;2023-04-01T07:28:52;0.43;;;0.40;;
27566;SDS011;15006;48.584;9.186;2023-04-01T07:31:27;1.77;;;0.57;;
27566;SDS011;15006;48.584;9.186;2023-04-01T07:34:09;0.60;;;0.40;;
27566;SDS011;15006;48.584;9.186;2023-04-01T07:51:02;1.00;;;0.60;;
27566;SDS011;15006;48.584;9.186;2023-04-01T07:53:50;4.03;;;0.75;;
27566;SDS011;15006;48.584;9.186;2023-04-01T07:59:29;1.02;;;0.50;;
27566;SDS011;15006;48.584;9.186;2023-04-01T08:05:12;0.90;;;0.52;;
27566;SDS011;15006;48.584;9.186;2023-04-01T08:16:12;1.02;;;0.43;;
27566;SDS011;15006;48.584;9.186;2023-04-01T08:18:55;1.90;;;0.50;;
27566;SDS011;15006;48.584;9.186;2023-04-01T08:21:39;1.15;;;0.35;;
27566;SDS011;15006;48.584;9.186;2023-04-01T08:24:17;2.78;;;0.95;;
27566;SDS011;15006;48.584;9.186;2023-04-01T08:26:55;3.47;;;0.50;;
27566;SDS011;15006;48.584;9.186;2023-04-01T08:29:44;1.20;;;0.45;;
27566;SDS011;15006;48.584;9.186;2023-04-01T08:32:20;1.45;;;0.50;;
27566;SDS011;15006;48.584;9.186;2023-04-01T08:34:57;1.27;;;0.60;;
27566;SDS011;15006;48.584;9.186;2023-04-01T08:37:35;0.50;;;0.47;;
27566;SDS011;15006;48.584;9.186;2023-04-01T08:52:07;1.23;;;0.50;;
27566;SDS011;15006;48.584;9.186;2023-04-01T08:58:26;0.40;;;0.30;;
27566;SDS011;15006;48.584;9.186;2023-04-01T09:01:13;0.90;;;0.40;;
27566;SDS011;15006;48.584;9.186;2023-04-01T09:24:39;0.85;;;0.55;;
27566;SDS011;15006;48.584;9.186;2023-04-01T09:27:43;0.82;;;0.50;;
27566;SDS011;15006;48.584;9.186;2023-04-01T09:42:45;0.52;;;0.40;;
27566;SDS011;15006;48.584;9.186;2023-04-01T09:51:33;1.83;;;0.60;;
27566;SDS011;15006;48.584;9.186;2023-04-01T10:26:28;1.02;;;0.40;;
27566;SDS011;15006;48.584;9.186;2023-04-01T10:29:33;0.65;;;0.30;;
27566;SDS011;15006;48.584;9.186;2023-04-01T10:35:57;0.63;;;0.45;;
27566;SDS011;15006;48.584;9.186;2023-04-01T10:39:24;1.88;;;0.70;;
27566;SDS011;15006;48.584;9.186;2023-04-01T10:51:16;0.43;;;0.32;;
27566;SDS011;15006;48.584;9.186;2023-04-01T10:54:07;1.15;;;0.40;;
27566;SDS011;15006;48.584;9.186;2023-04-01T11:25:54;0.40;;;0.40;;
27566;SDS011;15006;48.584;9.186;2023-04-01T12:01:26;2.22;;;0.43;;
27566;SDS011;15006;48.584;9.186;2023-04-01T12:04:45;0.30;;;0.30;;
27566;SDS011;15006;48.584;9.186;2023-04-01T12:10:46;0.30;;;0.30;;
27566;SDS011;15006;48.584;9.186;2023-04-01T12:14:08;0.63;;;0.30;;
27566;SDS011;15006;48.584;9.186;2023-04-01T12:32:38;0.30;;;0.20;;
27566;SDS011;15006;48.584;9.186;2023-04-01T13:14:57;0.22;;;0.10;;
27566;SDS011;15006;48.584;9.186;2023-04-01T13:20:44;0.35;;;0.20;;
27566;SDS011;15006;48.584;9.186;2023-04-01T13:29:02;0.30;;;0.20;;
27566;SDS011;15006;48.584;9.186;2023-04-01T13:34:22;0.85;;;0.40;;
27566;SDS011;15006;48.584;9.186;2023-04-01T13:43:25;1.25;;;0.28;;
27566;SDS011;15006;48.584;9.186;2023-04-01T14:06:12;0.10;;;0.10;;
27566;SDS011;15006;48.584;9.186;2023-04-01T14:09:24;0.20;;;0.20;;
27566;SDS011;15006;48.584;9.186;2023-04-01T14:18:20;0.80;;;0.13;;
27566;SDS011;15006;48.584;9.186;2023-04-01T14:21:13;0.30;;;0.20;;
27566;SDS011;15006;48.584;9.186;2023-04-01T14:27:21;0.17;;;0.10;;
27566;SDS011;15006;48.584;9.186;2023-04-01T14:30:27;0.30;;;0.30;;
27566;SDS011;15006;48.584;9.186;2023-04-01T14:50:15;0.50;;;0.20;;
27566;SDS011;15006;48.584;9.186;2023-04-01T14:55:57;0.20;;;0.20;;
27566;SDS011;15006;48.584;9.186;2023-04-01T14:58:47;0.20;;;0.20;;
27566;SDS011;15006;48.584;9.186;2023-04-01T15:01:24;0.10;;;0.10;;
27566;SDS011;15006;48.584;9.186;2023-04-01T15:04:08;3.03;;;0.20;;
27566;SDS011;15006;48.584;9.186;2023-04-01T15:06:57;0.65;;;0.30;;
27566;SDS011;15006;48.584;9.186;2023-04-01T15:10:01;0.30;;;0.20;;
27566;SDS011;15006;48.584;9.186;2023-04-01T15:12:40;0.40;;;0.40;;
27566;SDS011;15006;48.584;9.186;2023-04-01T15:27:49;0.65;;;0.30;;
27566;SDS011;15006;48.584;9.186;2023-04-01T15:30:29;0.52;;;0.50;;
27566;SDS011;15006;48.584;9.186;2023-04-01T15:35:59;1.45;;;0.50;;
27566;SDS011;15006;48.584;9.186;2023-04-01T15:38:44;0.55;;;0.52;;
27566;SDS011;15006;48.584;9.186;2023-04-01T15:41:24;0.20;;;0.20;;
27566;SDS011;15006;48.584;9.186;2023-04-01T15:46:56;0.38;;;0.30;;
27566;SDS011;15006;48.584;9.186;2023-04-01T15:49:37;0.40;;;0.40;;
27566;SDS011;15006;48.584;9.186;2023-04-01T15:52:34;2.30;;;0.52;;
27566;SDS011;15006;48.584;9.186;2023-04-01T16:01:48;0.40;;;0.40;;
27566;SDS011;15006;48.584;9.186;2023-04-01T16:11:37;1.25;;;0.50;;
27566;SDS011;15006;48.584;9.186;2023-04-01T16:17:00;0.70;;;0.30;;
27566;SDS011;15006;48.584;9.186;2023-04-01T16:22:20;0.52;;;0.30;;
27566;SDS011;15006;48.584;9.186;2023-04-01T16:28:21;0.63;;;0.30;;
27566;SDS011;15006;48.584;9.186;2023-04-01T16:36:27;0.40;;;0.30;;
27566;SDS011;15006;48.584;9.186;2023-04-01T16:44:31;1.00;;;0.40;;
27566;SDS011;15006;48.584;9.186;2023-04-01T16:47:35;0.43;;;0.40;;
27566;SDS011;15006;48.584;9.186;2023-04-01T16:50:21;0.55;;;0.30;;
27566;SDS011;15006;48.584;9.186;2023-04-01T16:55:49;0.50;;;0.43;;
27566;SDS011;15006;48.584;9.186;2023-04-01T16:58:25;0.52;;;0.40;;
27566;SDS011;15006;48.584;9.186;2023-04-01T17:01:00;1.67;;;0.40;;
27566;SDS011;15006;48.584;9.186;2023-04-01T17:03:37;0.40;;;0.40;;
27566;SDS011;15006;48.584;9.186;2023-04-01T17:06:19;0.73;;;0.40;;
27566;SDS011;15006;48.584;9.186;2023-04-01T17:11:39;0.30;;;0.30;;
27566;SDS011;15006;48.584;9.186;2023-04-01T17:20:11;1.13;;;0.55;;
27566;SDS011;15006;48.584;9.186;2023-04-01T17:29:15;2.50;;;0.60;;
27566;SDS011;15006;48.584;9.186;2023-04-01T17:37:52;0.50;;;0.50;;
27566;SDS011;15006;48.584;9.186;2023-04-01T17:43:27;0.68;;;0.50;;
27566;SDS011;15006;48.584;9.186;2023-04-01T17:49:25;1.65;;;0.50;;
27566;SDS011;15006;48.584;9.186;2023-04-01T17:56:01;1.02;;;0.63;;
27566;SDS011;15006;48.584;9.186;2023-04-01T17:58:55;1.00;;;0.65;;
27566;SDS011;15006;48.584;9.186;2023-04-01T18:07:59;0.55;;;0.55;;
27566;SDS011;15006;48.584;9.186;2023-04-01T18:17:12;0.70;;;0.38;;
27566;SDS011;15006;48.584;9.186;2023-04-01T18:19:54;0.47;;;0.45;;
27566;SDS011;15006;48.584;9.186;2023-04-01T18:31:04;1.20;;;0.50;;
27566;SDS011;15006;48.584;9.186;2023-04-01T18:36:44;0.80;;;0.50;;
27566;SDS011;15006;48.584;9.186;2023-04-01T18:39:37;0.88;;;0.47;;
27566;SDS011;15006;48.584;9.186;2023-04-01T18:45:22;3.22;;;2.50;;
27566;SDS011;15006;48.584;9.186;2023-04-01T18:51:11;1.63;;;0.40;;
27566;SDS011;15006;48.584;9.186;2023-04-01T18:53:58;1.20;;;1.10;;
27566;SDS011;15006;48.584;9.186;2023-04-01T18:56:33;2.28;;;0.30;;
27566;SDS011;15006;48.584;9.186;2023-04-01T19:07:48;1.00;;;0.40;;
27566;SDS011;15006;48.584;9.186;2023-04-01T19:16:21;1.10;;;0.40;;
27566;SDS011;15006;48.584;9.186;2023-04-01T19:25:42;0.80;;;0.70;;
27566;SDS011;15006;48.584;9.186;2023-04-01T19:31:24;0.40;;;0.40;;
27566;SDS011;15006;48.584;9.186;2023-04-01T19:39:59;1.38;;;0.55;;
27566;SDS011;15006;48.584;9.186;2023-04-01T19:45:53;0.50;;;0.50;;
27566;SDS011;15006;48.584;9.186;2023-04-01T19:48:33;0.47;;;0.47;;
27566;SDS011;15006;48.584;9.186;2023-04-01T19:57:30;1.30;;;0.50;;
27566;SDS011;15006;48.584;9.186;2023-04-01T20:00:28;0.80;;;0.60;;
27566;SDS011;15006;48.584;9.186;2023-04-01T20:03:07;1.77;;;1.20;;
27566;SDS011;15006;48.584;9.186;2023-04-01T20:09:36;1.75;;;1.65;;
27566;SDS011;15006;48.584;9.186;2023-04-01T20:12:29;2.25;;;2.10;;
27566;SDS011;15006;48.584;9.186;2023-04-01T20:15:00;1.60;;;1.50;;
27566;SDS011;15006;48.584;9.186;2023-04-01T20:17:32;1.50;;;1.40;;
27566;SDS011;15006;48.584;9.186;2023-04-01T20:20:20;1.15;;;1.00;;
27566;SDS011;15006;48.584;9.186;2023-04-01T20:26:03;0.75;;;0.75;;
27566;SDS011;15006;48.584;9.186;2023-04-01T20:28:42;0.87;;;0.87;;
27566;SDS011;15006;48.584;9.186;2023-04-01T20:31:42;0.70;;;0.70;;
27566;SDS011;15006;48.584;9.186;2023-04-01T20:34:22;1.05;;;0.60;;
27566;SDS011;15006;48.584;9.186;2023-04-01T20:37:29;0.57;;;0.57;;
27566;SDS011;15006;48.584;9.186;2023-04-01T20:48:37;3.05;;;2.72;;
27566;SDS011;15006;48.584;9.186;2023-04-01T20:51:26;2.58;;;2.40;;
27566;SDS011;15006;48.584;9.186;2023-04-01T20:54:09;2.45;;;2.25;;
27566;SDS011;15006;48.584;9.186;2023-04-01T20:57:17;1.50;;;1.40;;
27566;SDS011;15006;48.584;9.186;2023-04-01T21:02:41;1.08;;;1.08;;
27566;SDS011;15006;48.584;9.186;2023-04-01T21:14:47;1.40;;;1.10;;
27566;SDS011;15006;48.584;9.186;2023-04-01T21:17:22;2.75;;;1.65;;
27566;SDS011;15006;48.584;9.186;2023-04-01T21:20:23;1.40;;;1.10;;
27566;SDS011;15006;48.584;9.186;2023-04-01T21:43:09;0.90;;;0.90;;
27566;SDS011;15006;48.584;9.186;2023-04-01T21:49:36;1.48;;;1.00;;
27566;SDS011;15006;48.584;9.186;2023-04-01T22:07:15;2.45;;;0.88;;
27566;SDS011;15006;48.584;9.186;2023-04-01T22:09:51;3.00;;;1.20;;
27566;SDS011;15006;48.584;9.186;2023-04-01T22:20:25;0.93;;;0.90;;
27566;SDS011;15006;48.584;9.186;2023-04-01T22:23:13;0.73;;;0.73;;
27566;SDS011;15006;48.584;9.186;2023-04-01T22:25:54;1.95;;;0.75;;
27566;SDS011;15006;48.584;9.186;2023-04-01T22:31:28;0.80;;;0.80;;
27566;SDS011;15006;48.584;9.186;2023-04-01T22:34:15;0.60;;;0.60;;
27566;SDS011;15006;48.584;9.186;2023-04-01T22:43:10;0.80;;;0.47;;
27566;SDS011;15006;48.584;9.186;2023-04-01T22:48:18;0.77;;;0.70;;
27566;SDS011;15006;48.584;9.186;2023-04-01T22:54:14;0.60;;;0.60;;
27566;SDS011;15006;48.584;9.186;2023-04-01T22:56:46;0.70;;;0.70;;
27566;SDS011;15006;48.584;9.186;2023-04-01T23:02:10;0.60;;;0.60;;
27566;SDS011;15006;48.584;9.186;2023-04-01T23:04:48;1.08;;;0.70;;
27566;SDS011;15006;48.584;9.186;2023-04-01T23:10:58;2.17;;;0.70;;
27566;SDS011;15006;48.584;9.186;2023-04-01T23:13:37;0.50;;;0.50;;
27566;SDS011;15006;48.584;9.186;2023-04-01T23:16:14;0.90;;;0.50;;
27566;SDS011;15006;48.584;9.186;2023-04-01T23:19:06;0.60;;;0.60;;
27566;SDS011;15006;48.584;9.186;2023-04-01T23:24:31;0.60;;;0.55;;
27566;SDS011;15006;48.584;9.186;2023-04-01T23:27:05;0.60;;;0.60;;
27566;SDS011;15006;48.584;9.186;2023-04-01T23:29:39;0.47;;;0.47;;
27566;SDS011;15006;48.584;9.186;2023-04-01T23:32:15;0.40;;;0.40;;
27566;SDS011;15006;48.584;9.186;2023-04-01T23:34:49;0.40;;;0.40;;
27566;SDS011;15006;48.584;9.186;2023-04-01T23:37:21;0.38;;;0.35;;
27566;SDS011;15006;48.584;9.186;2023-04-01T23:39:54;0.40;;;0.40;;
27566;SDS011;15006;48.584;9.186;2023-04-01T23:42:31;0.52;;;0.50;;
27566;SDS011;15006;48.584;9.186;2023-04-01T23:47:42;1.58;;;0.70;;
27566;SDS011;15006;48.584;9.186;2023-04-01T23:53:25;1.05;;;0.50;;
27566;SDS011;15006;48.584;9.186;2023-04-01T23:55:51;0.40;;;0.40;;
27566;SDS011;15006;48.584;9.186;2023-04-01T23:58:22;0.52;;;0.40;;
